KCUL

Carmi Municipal Airport

Carmi, Illinois, USA
METAR KCUL 200655Z AUTO 17013KT 10SM CLR 19/15 A3000 RMK AO2 T01850150
Observed Flight Rules
Feb-20 @ 06:55 UTC (27 minutes ago) Visual Flight Rules
Wind Visibility Clouds
170° at 13 knots 10 miles
  • Clear skies
Temperatures Readings
Current 19°C / 66°F
Dewpoint 15°C / 59°F
Humidity 78%
Altimeter 30" Hg
Pressure 1016 hPa
Elevation 118
METAR KCUL 200655Z AUTO 17013KT 10SM CLR 19/15 A3000 RMK AO2 T01850150
Observed Flight Rules
Feb-20 @ 06:55 UTC
(27 minutes ago)
VFR
Wind Visibility
170° at 13 knots 10 miles
Clouds
  • Clear skies
Temperature Dewpoint
19°C / 66°F 15°C / 59°F
Humidity Altimeter Pressure
78% 30" Hg 1016 hPa